This is the latest recevied weather packets stored in our database for station/object N9DRW. If no packets are shown the sender has not sent any weather packets the latest 10 day(s).
| Time | Temp. | Humidity | Pressure | Rain* | Wind** | Luminosity | Snow |
|---|---|---|---|---|---|---|---|
| 1778162526 | 8.33° C | 53% | 0 hPa | 0 mm | - | - | - |
| 1778161926 | 7.78° C | 54% | 0 hPa | 0 mm | - | - | - |
| 1778161326 | 7.22° C | 57% | 0 hPa | 0 mm | - | - | - |
| 1778160726 | 6.67° C | 60% | 0 hPa | 0 mm | - | - | - |
| 1778160125 | 6.67° C | 58% | 0 hPa | 0 mm | - | - | - |
| 1778159526 | 6.11° C | 62% | 0 hPa | 0 mm | - | - | - |
| 1778158927 | 5° C | 64% | 0 hPa | 0 mm | - | - | - |
| 1778158326 | 4.44° C | 65% | 0 hPa | 0 mm | - | - | - |
| 1778157726 | 3.89° C | 67% | 0 hPa | 0 mm | - | - | - |
| 1778157129 | 3.33° C | 69% | 0 hPa | 0 mm | - | - | - |
| 1778156526 | 2.78° C | 72% | 0 hPa | 0 mm | - | - | - |
| 1778155926 | 2.78° C | 72% | 0 hPa | 0 mm | - | - | - |
| 1778155326 | 2.78° C | 72% | 0 hPa | 0 mm | - | - | - |
| 1778154726 | 2.78° C | 72% | 0 hPa | 0 mm | - | - | - |
| 1778154125 | 2.78° C | 72% | 0 hPa | 0 mm | - | - | - |
| 1778153526 | 2.22° C | 72% | 0 hPa | 0 mm | - | - | - |
| 1778152926 | 2.22° C | 72% | 0 hPa | 0 mm | - | - | - |
| 1778152325 | 2.22° C | 72% | 0 hPa | 0 mm | - | - | - |
| 1778151726 | 2.22° C | 72% | 0 hPa | 0 mm | - | - | - |
| 1778151126 | 2.22° C | 72% | 0 hPa | 0 mm | - | - | - |
| 1778150525 | 2.22° C | 72% | 0 hPa | 0 mm | - | - | - |
| 1778149926 | 2.22° C | 71% | 0 hPa | 0 mm | - | - | - |
| 1778149325 | 2.22° C | 71% | 0 hPa | 0 mm | - | - | - |
| 1778148726 | 2.22° C | 71% | 0 hPa | 0 mm | - | - | - |
| 1778148126 | 1.67° C | 70% | 0 hPa | 0 mm | - | - | - |
* Rain latest hour (hover to see other rain measurements)
** Current wind speed in m/s (hover to see current wind gust speed)